Time;durP1;ratioP1;P1;durP2;ratioP2;P2;SDS_P1;SDS_P2;PMS_P1;PMS_P2;Temp;Humidity;BMP_temperature;BMP_pressure;BME280_temperature;BME280_humidity;BME280_pressure;Samples;Min_cycle;Max_cycle;Signal;HPM_P1;HPM_P2
2022/08/08 00:00:16;;;;;;;4.32;2.25;;;19.40;84.70;;;;;;5071141;28;20020;-64
2022/08/08 00:03:18;;;;;;;3.53;2.20;;;19.40;84.60;;;;;;5071396;28;20085;-64
2022/08/08 00:06:20;;;;;;;5.78;2.17;;;19.40;84.80;;;;;;5071226;28;20055;-64
2022/08/08 00:08:52;;;;;;;3.88;2.30;;;19.40;85.00;;;;;;5071073;28;20485;-64
2022/08/08 00:11:38;;;;;;;3.33;2.03;;;19.30;84.70;;;;;;5071394;28;20392;-64
2022/08/08 00:14:47;;;;;;;4.05;2.17;;;19.30;84.90;;;;;;5071209;28;20029;-64
2022/08/08 00:17:28;;;;;;;4.00;2.35;;;19.30;85.10;;;;;;5062174;28;20507;-64
2022/08/08 00:20:01;;;;;;;3.80;2.25;;;19.20;85.50;;;;;;5071148;28;20025;-66
2022/08/08 00:22:34;;;;;;;5.22;2.13;;;19.20;85.60;;;;;;5071229;28;20025;-64
2022/08/08 00:25:05;;;;;;;4.97;2.75;;;19.20;85.60;;;;;;5071144;28;20056;-64
2022/08/08 00:27:34;;;;;;;4.45;2.53;;;19.10;85.70;;;;;;5070854;28;20544;-66
2022/08/08 00:30:05;;;;;;;4.15;2.55;;;19.10;85.90;;;;;;5070710;28;20043;-66
2022/08/08 00:32:45;;;;;;;4.78;2.35;;;19.10;86.00;;;;;;5071392;28;20036;-66
2022/08/08 00:35:34;;;;;;;3.92;2.38;;;19.10;86.00;;;;;;5053042;28;20401;-67
2022/08/08 00:38:03;;;;;;;4.05;2.33;;;19.10;86.20;;;;;;5070918;28;20169;-66
2022/08/08 00:40:29;;;;;;;4.88;2.40;;;19.10;86.40;;;;;;5085107;22;20518;-69
2022/08/08 00:43:39;;;;;;;3.80;2.40;;;19.10;86.40;;;;;;5052883;28;20055;-69
2022/08/08 00:46:21;;;;;;;4.57;2.20;;;19.10;86.40;;;;;;5069330;28;20025;-69
2022/08/08 00:49:08;;;;;;;4.85;2.45;;;19.00;86.50;;;;;;5052559;28;20035;-68
2022/08/08 00:51:49;;;;;;;4.93;2.60;;;19.00;87.30;;;;;;5070554;28;20491;-69
2022/08/08 00:54:43;;;;;;;5.18;2.38;;;19.00;87.60;;;;;;5052736;28;20059;-69
2022/08/08 00:57:49;;;;;;;4.28;2.30;;;19.00;86.80;;;;;;5070386;28;20033;-69
2022/08/08 01:00:20;;;;;;;5.90;2.80;;;18.90;87.20;;;;;;5070368;28;20021;-69
2022/08/08 01:03:18;;;;;;;4.60;2.67;;;18.80;87.50;;;;;;5052456;28;20073;-69
2022/08/08 01:06:13;;;;;;;5.90;2.67;;;18.80;87.60;;;;;;5052482;28;20029;-69
2022/08/08 01:09:14;;;;;;;4.95;2.42;;;18.70;87.70;;;;;;5052348;28;20087;-69
2022/08/08 01:12:23;;;;;;;3.75;2.35;;;18.70;88.10;;;;;;5055941;28;20063;-69
2022/08/08 01:15:15;;;;;;;4.50;2.50;;;18.70;88.00;;;;;;5040830;28;20119;-69
2022/08/08 01:17:50;;;;;;;6.10;2.70;;;18.70;88.00;;;;;;5039517;28;20408;-69
2022/08/08 01:20:41;;;;;;;6.18;2.88;;;18.70;88.10;;;;;;5055995;28;20054;-69
2022/08/08 01:23:40;;;;;;;4.68;2.60;;;18.70;88.20;;;;;;5040099;28;20362;-69
2022/08/08 01:26:29;;;;;;;4.35;2.58;;;18.60;88.30;;;;;;5055915;28;20026;-69
2022/08/08 01:29:33;;;;;;;3.67;2.37;;;18.60;88.40;;;;;;5055891;28;20110;-69
2022/08/08 01:32:15;;;;;;;4.03;2.70;;;18.60;88.70;;;;;;5073745;28;20020;-69
2022/08/08 01:35:15;;;;;;;4.95;2.50;;;18.60;88.60;;;;;;5055916;28;20048;-69
2022/08/08 01:38:12;;;;;;;7.03;2.70;;;18.50;88.80;;;;;;5055738;28;20112;-69
2022/08/08 01:41:06;;;;;;;4.88;3.03;;;18.50;88.80;;;;;;5055466;28;20032;-69
2022/08/08 01:43:46;;;;;;;4.07;2.70;;;18.50;88.90;;;;;;5055767;28;20548;-69
2022/08/08 01:46:41;;;;;;;4.70;2.80;;;18.50;89.10;;;;;;5055645;28;20230;-69
2022/08/08 01:49:36;;;;;;;5.28;2.80;;;18.50;89.20;;;;;;5055546;28;20059;-69
2022/08/08 01:52:33;;;;;;;4.53;2.65;;;18.50;89.30;;;;;;5041618;28;20098;-69
2022/08/08 01:55:27;;;;;;;4.18;2.60;;;18.40;89.60;;;;;;5055484;28;20051;-68
2022/08/08 01:58:23;;;;;;;4.15;2.70;;;18.40;89.90;;;;;;5055315;28;20028;-69
2022/08/08 02:01:07;;;;;;;5.72;3.05;;;18.40;89.90;;;;;;5055312;28;20056;-69
2022/08/08 02:03:57;;;;;;;4.50;2.70;;;18.40;90.30;;;;;;5055222;28;20476;-68
2022/08/08 02:06:51;;;;;;;5.93;3.33;;;18.40;89.90;;;;;;5055270;28;20021;-69
2022/08/08 02:09:46;;;;;;;5.43;2.75;;;18.40;89.90;;;;;;5055147;28;20082;-68
2022/08/08 02:12:20;;;;;;;6.80;3.50;;;18.30;90.10;;;;;;5055253;28;20025;-68
2022/08/08 02:15:11;;;;;;;6.07;3.38;;;18.30;90.10;;;;;;5055339;28;20032;-69
2022/08/08 02:18:00;;;;;;;5.03;3.13;;;18.20;90.20;;;;;;5054872;28;20489;-69
2022/08/08 02:20:42;;;;;;;6.63;3.15;;;18.20;90.20;;;;;;5054707;28;20109;-69
2022/08/08 02:23:22;;;;;;;4.93;3.10;;;18.20;90.40;;;;;;5055163;28;20024;-69
2022/08/08 02:26:07;;;;;;;5.18;2.85;;;18.10;90.50;;;;;;5054823;28;20489;-69
2022/08/08 02:28:36;;;;;;;6.53;3.20;;;18.10;90.60;;;;;;5038312;28;20532;-69
2022/08/08 02:31:48;;;;;;;5.07;3.10;;;18.10;90.60;;;;;;5054717;28;20544;-69
2022/08/08 02:34:37;;;;;;;4.93;3.20;;;18.10;90.70;;;;;;5072868;28;20431;-69
2022/08/08 02:37:42;;;;;;;4.75;3.10;;;18.10;90.80;;;;;;5072546;28;20032;-69
2022/08/08 02:40:42;;;;;;;5.43;3.28;;;18.00;90.80;;;;;;5054460;28;20553;-69
2022/08/08 02:43:35;;;;;;;6.03;3.10;;;18.00;90.90;;;;;;5054510;28;20032;-69
2022/08/08 02:46:27;;;;;;;7.55;4.20;;;18.00;91.00;;;;;;5054496;28;20020;-69
2022/08/08 02:49:41;;;;;;;5.63;3.60;;;17.90;91.10;;;;;;5054328;28;20044;-70
2022/08/08 02:52:29;;;;;;;5.82;3.33;;;17.90;91.10;;;;;;5054503;28;20488;-69
2022/08/08 02:55:26;;;;;;;6.85;3.80;;;17.90;91.20;;;;;;5054439;28;20035;-69
2022/08/08 02:58:42;;;;;;;4.38;3.15;;;17.90;91.30;;;;;;5054147;28;20035;-69
2022/08/08 03:01:32;;;;;;;7.43;3.47;;;17.90;91.30;;;;;;5072224;28;20074;-69
2022/08/08 03:04:22;;;;;;;8.90;3.42;;;17.80;91.40;;;;;;5054293;28;20480;-69
2022/08/08 03:07:10;;;;;;;6.85;3.60;;;17.80;91.50;;;;;;5054082;28;20413;-69
2022/08/08 03:09:58;;;;;;;5.55;3.67;;;17.80;91.50;;;;;;5053822;28;20032;-69
2022/08/08 03:12:50;;;;;;;5.90;3.38;;;17.80;91.50;;;;;;5072045;28;20029;-69
2022/08/08 03:15:38;;;;;;;6.18;3.40;;;17.80;91.60;;;;;;5054073;28;20024;-70
2022/08/08 03:18:22;;;;;;;7.15;3.53;;;17.70;91.70;;;;;;5053978;28;20408;-69
2022/08/08 03:20:49;;;;;;;6.57;4.30;;;17.70;91.70;;;;;;5037125;28;20086;-69
2022/08/08 03:23:21;;;;;;;6.50;3.83;;;17.80;91.80;;;;;;5053883;28;20036;-69
2022/08/08 03:25:48;;;;;;;7.22;4.45;;;17.70;91.80;;;;;;5053696;28;20552;-69
2022/08/08 03:28:26;;;;;;;6.32;3.50;;;17.70;91.90;;;;;;5053762;28;20115;-68
2022/08/08 03:30:53;;;;;;;5.28;3.63;;;17.70;91.90;;;;;;5053570;28;20488;-69
2022/08/08 03:33:20;;;;;;;6.03;3.72;;;17.70;92.00;;;;;;5053143;28;20421;-69
2022/08/08 03:35:52;;;;;;;5.82;3.83;;;17.70;92.00;;;;;;5053576;28;20040;-69
2022/08/08 03:38:21;;;;;;;6.05;3.60;;;17.70;92.00;;;;;;5053410;28;20062;-69
2022/08/08 03:40:53;;;;;;;6.05;4.00;;;17.60;92.20;;;;;;5053315;28;20396;-68
2022/08/08 03:43:22;;;;;;;7.07;3.97;;;17.60;92.20;;;;;;5053835;28;20029;-69
2022/08/08 03:45:53;;;;;;;9.18;4.13;;;17.60;92.30;;;;;;5053289;28;20073;-69
2022/08/08 03:48:19;;;;;;;6.38;3.70;;;17.60;92.20;;;;;;5053569;28;20032;-69
2022/08/08 03:50:48;;;;;;;10.10;4.65;;;17.60;92.40;;;;;;5053078;28;20039;-69
2022/08/08 03:53:19;;;;;;;6.80;5.00;;;17.60;92.40;;;;;;5053254;28;20036;-69
2022/08/08 03:55:48;;;;;;;8.98;4.40;;;17.60;92.40;;;;;;5053069;28;20120;-69
2022/08/08 03:58:23;;;;;;;6.85;4.22;;;17.60;92.60;;;;;;5053229;28;20033;-69
2022/08/08 04:00:56;;;;;;;7.80;4.00;;;17.60;92.50;;;;;;5053156;28;20492;-69
2022/08/08 04:03:33;;;;;;;10.75;4.00;;;17.50;92.60;;;;;;5053293;28;20480;-69
2022/08/08 04:06:05;;;;;;;5.53;3.97;;;17.50;92.80;;;;;;5053045;28;20052;-69
2022/08/08 04:08:35;;;;;;;8.38;4.30;;;17.50;92.80;;;;;;5053318;28;20488;-69
2022/08/08 04:11:05;;;;;;;7.20;4.25;;;17.40;92.90;;;;;;5053432;28;20152;-69
2022/08/08 04:13:32;;;;;;;7.45;4.63;;;17.40;93.00;;;;;;5053103;28;20029;-69
2022/08/08 04:16:00;;;;;;;8.60;4.72;;;17.40;93.00;;;;;;5052976;28;20366;-69
2022/08/08 04:18:27;;;;;;;9.43;4.95;;;17.40;93.10;;;;;;5052885;28;20036;-69
2022/08/08 04:20:53;;;;;;;8.27;4.65;;;17.40;93.20;;;;;;5052612;28;20033;-69
2022/08/08 04:23:19;;;;;;;10.48;4.93;;;17.30;93.30;;;;;;5053020;28;20025;-69
2022/08/08 04:25:45;;;;;;;6.97;4.63;;;17.40;93.30;;;;;;5053124;28;20480;-69
2022/08/08 04:28:12;;;;;;;7.35;4.80;;;17.40;93.30;;;;;;5071604;28;20039;-69
2022/08/08 04:30:38;;;;;;;8.02;4.60;;;17.40;93.30;;;;;;5052867;28;20115;-69
2022/08/08 04:33:04;;;;;;;9.10;4.90;;;17.40;93.40;;;;;;5036505;28;20078;-69
2022/08/08 04:35:32;;;;;;;8.75;4.70;;;17.30;93.50;;;;;;5052730;28;20028;-69
2022/08/08 04:37:59;;;;;;;9.05;4.97;;;17.30;93.60;;;;;;5070556;28;20024;-69
2022/08/08 04:40:29;;;;;;;8.40;4.78;;;17.30;93.60;;;;;;5070700;28;20401;-69
2022/08/08 04:42:57;;;;;;;10.88;5.03;;;17.20;93.60;;;;;;5052814;28;20074;-69
2022/08/08 04:45:25;;;;;;;8.65;5.00;;;17.30;93.70;;;;;;5054241;28;20028;-69
2022/08/08 04:47:55;;;;;;;9.98;4.80;;;17.30;93.70;;;;;;5056683;28;20098;-69
2022/08/08 04:50:22;;;;;;;10.88;5.40;;;17.40;93.70;;;;;;5056547;28;20107;-69
2022/08/08 04:52:48;;;;;;;7.22;4.53;;;17.30;93.70;;;;;;5056876;28;20400;-69
2022/08/08 04:55:16;;;;;;;10.07;4.88;;;17.30;93.80;;;;;;5056816;28;20043;-68
2022/08/08 04:57:42;;;;;;;15.90;5.47;;;17.30;93.80;;;;;;5056655;28;20174;-69
2022/08/08 05:00:10;;;;;;;7.88;5.30;;;17.30;93.80;;;;;;5056591;28;20032;-69
2022/08/08 05:02:36;;;;;;;10.13;4.78;;;17.30;93.80;;;;;;5056936;28;20047;-69
2022/08/08 05:05:03;;;;;;;10.27;5.10;;;17.40;93.90;;;;;;5056881;28;20028;-69
2022/08/08 05:07:31;;;;;;;7.38;4.78;;;17.40;93.80;;;;;;5056475;28;20037;-68
2022/08/08 05:09:57;;;;;;;9.25;5.40;;;17.40;93.90;;;;;;5074163;28;20039;-69
2022/08/08 05:12:23;;;;;;;10.93;5.40;;;17.40;93.90;;;;;;5074562;28;20025;-69
2022/08/08 05:14:50;;;;;;;9.73;5.60;;;17.40;93.80;;;;;;5056086;28;20028;-69
2022/08/08 05:17:16;;;;;;;10.82;5.57;;;17.50;93.70;;;;;;5039519;28;20055;-69
2022/08/08 05:19:42;;;;;;;11.80;5.43;;;17.50;93.60;;;;;;5056359;28;20028;-69
2022/08/08 05:22:10;;;;;;;9.70;5.80;;;17.50;93.70;;;;;;5056135;28;20020;-69
2022/08/08 05:24:40;;;;;;;10.73;5.90;;;17.50;93.80;;;;;;5056124;28;20111;-69
2022/08/08 05:27:07;;;;;;;11.63;5.25;;;17.50;93.70;;;;;;5039523;28;20078;-69
2022/08/08 05:29:36;;;;;;;10.45;5.13;;;17.60;93.60;;;;;;5055727;28;20024;-69
2022/08/08 05:32:06;;;;;;;9.30;5.82;;;17.60;93.60;;;;;;5055882;28;20485;-69
2022/08/08 05:34:41;;;;;;;11.52;6.18;;;17.70;93.40;;;;;;5056032;28;20035;-69
2022/08/08 05:37:10;;;;;;;9.30;5.03;;;17.70;93.40;;;;;;5074029;28;20039;-69
2022/08/08 05:39:37;;;;;;;;;;;17.70;93.50;;;;;;5074000;28;20056;-69
2022/08/08 05:42:04;;;;;;;10.07;5.80;;;17.70;93.60;;;;;;5055691;28;20357;-69
2022/08/08 05:44:39;;;;;;;8.90;5.47;;;17.70;93.60;;;;;;5055844;28;20024;-69
2022/08/08 05:47:05;;;;;;;9.45;5.28;;;17.70;93.40;;;;;;5073681;28;20393;-69
2022/08/08 05:49:33;;;;;;;9.27;6.22;;;17.70;93.50;;;;;;5055508;28;20028;-69
2022/08/08 05:52:00;;;;;;;8.57;5.40;;;17.70;93.60;;;;;;5073503;28;20024;-69
2022/08/08 05:54:26;;;;;;;8.32;5.70;;;17.70;93.50;;;;;;5055496;28;20074;-69
2022/08/08 05:56:52;;;;;;;9.23;6.00;;;17.80;93.60;;;;;;5072785;28;20032;-69
2022/08/08 05:59:24;;;;;;;11.95;6.38;;;17.80;93.40;;;;;;5055149;28;20411;-69
2022/08/08 06:01:54;;;;;;;16.02;7.20;;;17.90;93.40;;;;;;5055577;28;20086;-70
2022/08/08 06:04:26;;;;;;;14.10;6.60;;;17.90;93.40;;;;;;5055494;28;20043;-69
2022/08/08 06:06:58;;;;;;;11.90;6.05;;;17.90;93.30;;;;;;5055262;28;20034;-69
2022/08/08 06:09:31;;;;;;;;;;;17.90;93.40;;;;;;5055460;28;20038;-69
2022/08/08 06:12:03;;;;;;;9.10;5.63;;;17.90;93.50;;;;;;5055361;28;19920;-69
2022/08/08 06:14:31;;;;;;;11.38;7.07;;;17.90;93.40;;;;;;5055134;28;20110;-69
2022/08/08 06:17:00;;;;;;;8.05;5.95;;;18.00;93.30;;;;;;5054973;28;20032;-69
2022/08/08 06:19:54;;;;;;;9.32;5.70;;;18.10;93.20;;;;;;5054696;28;20044;-69
2022/08/08 06:22:20;;;;;;;12.32;5.70;;;18.10;93.20;;;;;;5055047;28;20477;-70
2022/08/08 06:24:51;;;;;;;9.38;5.95;;;18.10;93.20;;;;;;5055157;28;20025;-69
2022/08/08 06:27:32;;;;;;;9.65;6.03;;;18.20;93.10;;;;;;5038369;28;20113;-69
2022/08/08 06:30:07;;;;;;;10.88;6.35;;;18.20;92.90;;;;;;5072548;28;20043;-70
2022/08/08 06:32:57;;;;;;;13.50;7.00;;;18.20;92.80;;;;;;5055240;28;20477;-70
2022/08/08 06:35:28;;;;;;;9.63;5.72;;;18.30;92.70;;;;;;5072793;28;20393;-69
2022/08/08 06:38:04;;;;;;;9.88;6.03;;;18.30;92.80;;;;;;5054645;28;20090;-70
2022/08/08 06:40:34;;;;;;;9.00;5.88;;;18.30;92.80;;;;;;5069127;22;20040;-72
2022/08/08 06:43:09;;;;;;;8.13;5.40;;;18.30;92.80;;;;;;5054602;28;20036;-72
2022/08/08 06:45:42;;;;;;;10.05;6.20;;;18.40;92.70;;;;;;5054716;28;20115;-72
2022/08/08 06:48:09;;;;;;;7.05;4.57;;;18.40;92.70;;;;;;5054766;28;20389;-72
2022/08/08 06:50:38;;;;;;;10.93;5.70;;;18.50;92.70;;;;;;5054211;28;20029;-72
2022/08/08 06:53:09;;;;;;;8.38;5.22;;;18.50;92.70;;;;;;5054671;28;20029;-72
2022/08/08 06:55:38;;;;;;;11.57;5.15;;;18.60;92.70;;;;;;5054284;28;20028;-72
2022/08/08 06:58:04;;;;;;;9.52;5.28;;;18.60;92.60;;;;;;5054347;28;20395;-72
2022/08/08 07:00:34;;;;;;;7.70;5.20;;;18.70;92.50;;;;;;5037541;28;20027;-71
2022/08/08 07:03:08;;;;;;;7.80;5.00;;;18.70;92.40;;;;;;5072108;28;20542;-72
2022/08/08 07:05:38;;;;;;;8.68;4.72;;;18.80;92.30;;;;;;5054305;28;20546;-72
2022/08/08 07:08:17;;;;;;;7.35;5.03;;;18.80;92.30;;;;;;5053186;28;20159;-72
2022/08/08 07:10:49;;;;;;;8.38;5.53;;;18.80;92.10;;;;;;5053759;28;20131;-71
2022/08/08 07:13:18;;;;;;;7.45;4.70;;;18.90;92.00;;;;;;5054126;28;20401;-72
2022/08/08 07:16:02;;;;;;;7.88;5.00;;;18.90;91.90;;;;;;5053775;28;20035;-72
2022/08/08 07:18:43;;;;;;;7.10;4.55;;;18.90;91.80;;;;;;5053805;28;20136;-72
2022/08/08 07:21:16;;;;;;;7.75;4.50;;;18.90;91.70;;;;;;5053855;28;20035;-72
2022/08/08 07:24:27;;;;;;;7.35;4.72;;;19.00;91.60;;;;;;5053800;28;20029;-71
2022/08/08 07:26:59;;;;;;;7.13;4.28;;;19.00;91.50;;;;;;5047843;28;20036;-72
2022/08/08 07:29:26;;;;;;;9.65;5.32;;;19.10;91.50;;;;;;5053488;28;20032;-72
2022/08/08 07:31:52;;;;;;;8.48;5.68;;;19.10;91.50;;;;;;5053651;28;20063;-72
2022/08/08 07:34:18;;;;;;;8.27;4.68;;;19.10;91.40;;;;;;5053543;28;20043;-72
2022/08/08 07:36:47;;;;;;;10.25;5.13;;;19.20;91.40;;;;;;5053510;28;20033;-72
2022/08/08 07:39:17;;;;;;;9.85;5.50;;;19.30;90.90;;;;;;5053340;28;20028;-72
2022/08/08 07:41:46;;;;;;;8.18;4.85;;;19.30;90.70;;;;;;5053264;28;20493;-71
2022/08/08 07:44:15;;;;;;;11.68;5.53;;;19.30;90.90;;;;;;5053479;28;20055;-72
2022/08/08 07:46:41;;;;;;;10.05;5.28;;;19.30;91.00;;;;;;5053607;28;20025;-72
2022/08/08 07:49:12;;;;;;;10.48;4.90;;;19.30;91.00;;;;;;5053090;28;20492;-72
2022/08/08 07:51:41;;;;;;;9.05;5.05;;;19.40;90.90;;;;;;5071296;28;20028;-72
2022/08/08 07:54:25;;;;;;;11.32;5.20;;;19.40;90.70;;;;;;5053280;28;20036;-72
2022/08/08 07:57:12;;;;;;;9.25;4.95;;;19.50;90.30;;;;;;5071062;28;20032;-72
2022/08/08 07:59:57;;;;;;;10.02;5.05;;;19.50;89.70;;;;;;5053020;28;20036;-71
2022/08/08 08:02:29;;;;;;;7.30;4.20;;;19.60;89.60;;;;;;5053207;28;20029;-72
2022/08/08 08:05:01;;;;;;;10.43;4.68;;;19.60;89.80;;;;;;5053168;28;20059;-72
2022/08/08 08:07:33;;;;;;;8.50;5.38;;;19.60;90.20;;;;;;5053284;28;20028;-71
2022/08/08 08:10:03;;;;;;;11.55;5.53;;;19.70;90.30;;;;;;5052757;28;20028;-72
2022/08/08 08:12:29;;;;;;;7.82;4.78;;;19.70;90.10;;;;;;5052989;28;20448;-72
2022/08/08 08:15:05;;;;;;;10.55;4.70;;;19.70;90.10;;;;;;5053000;28;20578;-72
2022/08/08 08:17:41;;;;;;;7.93;4.00;;;19.80;90.10;;;;;;5052711;28;20032;-72
2022/08/08 08:20:09;;;;;;;8.88;4.68;;;19.80;90.00;;;;;;5052462;28;20111;-72
2022/08/08 08:22:35;;;;;;;7.68;4.68;;;19.80;89.90;;;;;;5053176;28;20393;-72
2022/08/08 08:25:05;;;;;;;8.00;4.75;;;19.90;89.80;;;;;;5052893;28;20699;-72
2022/08/08 08:27:31;;;;;;;6.35;3.80;;;19.90;87.90;;;;;;5052780;28;20040;-72
2022/08/08 08:29:58;;;;;;;7.80;4.15;;;19.90;88.20;;;;;;5070601;28;20024;-72
2022/08/08 08:32:27;;;;;;;7.45;4.07;;;20.00;87.90;;;;;;5052784;28;20033;-72
2022/08/08 08:34:53;;;;;;;6.72;4.10;;;20.00;87.70;;;;;;5052734;28;20036;-72
2022/08/08 08:37:21;;;;;;;8.27;4.30;;;20.00;88.10;;;;;;5052569;28;20515;-72
2022/08/08 08:39:50;;;;;;;;;;;20.10;87.90;;;;;;5036793;28;20033;-72
2022/08/08 08:42:17;;;;;;;7.45;4.20;;;20.10;88.30;;;;;;5052682;28;19919;-72
2022/08/08 08:44:44;;;;;;;7.60;3.97;;;20.10;89.00;;;;;;5052661;28;20056;-72
2022/08/08 08:47:10;;;;;;;7.88;3.95;;;20.10;89.20;;;;;;5052511;28;20024;-72
2022/08/08 08:49:36;;;;;;;7.00;3.88;;;20.20;89.00;;;;;;5052451;28;20569;-72
2022/08/08 08:52:04;;;;;;;6.95;3.80;;;20.20;88.60;;;;;;5052582;28;20481;-72
2022/08/08 08:54:33;;;;;;;7.85;3.83;;;20.20;88.10;;;;;;5052689;28;20396;-71
2022/08/08 08:57:04;;;;;;;6.28;3.90;;;20.30;87.00;;;;;;5052349;28;20040;-72
2022/08/08 08:59:36;;;;;;;9.50;4.15;;;20.30;86.80;;;;;;5070240;28;20081;-72
2022/08/08 09:02:05;;;;;;;8.35;3.63;;;20.30;87.50;;;;;;5035872;28;20489;-72
2022/08/08 09:04:35;;;;;;;7.65;3.63;;;20.40;88.10;;;;;;5052505;28;20097;-72
2022/08/08 09:07:05;;;;;;;8.13;3.25;;;20.40;86.90;;;;;;5052694;28;20459;-72
2022/08/08 09:09:34;;;;;;;6.05;3.47;;;20.40;86.90;;;;;;5052179;28;20033;-71
2022/08/08 09:12:10;;;;;;;8.95;3.65;;;20.50;86.90;;;;;;5052475;28;20032;-72
2022/08/08 09:14:41;;;;;;;5.60;2.65;;;20.60;85.60;;;;;;5052351;28;20493;-72
2022/08/08 09:17:08;;;;;;;4.35;2.90;;;20.60;85.30;;;;;;5052306;28;20033;-72
2022/08/08 09:19:34;;;;;;;6.13;3.28;;;20.60;84.60;;;;;;5052018;28;20110;-72
2022/08/08 09:22:04;;;;;;;6.40;3.35;;;20.60;84.90;;;;;;5052315;28;20031;-72
2022/08/08 09:24:34;;;;;;;8.73;3.83;;;20.60;84.20;;;;;;5052345;28;20542;-72
2022/08/08 09:27:07;;;;;;;8.43;3.55;;;20.70;83.50;;;;;;5052243;28;20291;-71
2022/08/08 09:29:42;;;;;;;10.70;3.95;;;20.80;83.30;;;;;;5052080;28;20454;-71
2022/08/08 09:32:15;;;;;;;6.22;3.40;;;20.80;83.80;;;;;;5054668;28;20032;-72
2022/08/08 09:34:50;;;;;;;7.05;3.72;;;20.80;83.70;;;;;;5055970;28;20024;-72
2022/08/08 09:37:19;;;;;;;5.32;3.28;;;20.80;83.30;;;;;;5055643;28;20447;-72
2022/08/08 09:39:59;;;;;;;5.28;3.13;;;20.80;83.30;;;;;;5055629;28;20040;-72
2022/08/08 09:42:42;;;;;;;8.40;3.70;;;20.90;83.10;;;;;;5055798;28;20464;-72
2022/08/08 09:45:30;;;;;;;8.43;3.72;;;20.90;83.00;;;;;;5055682;28;20020;-72
2022/08/08 09:48:00;;;;;;;7.60;3.42;;;20.90;82.30;;;;;;5073575;28;20063;-72
2022/08/08 09:50:29;;;;;;;7.13;3.08;;;21.00;82.70;;;;;;5055559;28;20374;-72
2022/08/08 09:52:56;;;;;;;5.10;3.00;;;21.10;81.90;;;;;;5073486;28;20378;-72
2022/08/08 09:55:24;;;;;;;6.90;3.38;;;21.00;81.90;;;;;;5073675;28;20123;-72
2022/08/08 09:58:03;;;;;;;5.93;3.33;;;21.10;82.70;;;;;;5055525;28;20048;-72
2022/08/08 10:00:32;;;;;;;7.28;3.42;;;21.10;81.90;;;;;;5073135;28;20262;-72
2022/08/08 10:03:02;;;;;;;7.18;2.97;;;21.10;81.70;;;;;;5073391;28;20086;-72
2022/08/08 10:05:34;;;;;;;9.15;3.30;;;21.10;81.80;;;;;;5073334;28;20074;-72
2022/08/08 10:08:01;;;;;;;6.82;2.88;;;21.10;81.90;;;;;;5073203;28;20032;-72
2022/08/08 10:10:40;;;;;;;4.50;2.75;;;21.20;81.20;;;;;;5055248;28;20040;-71
2022/08/08 10:13:25;;;;;;;8.95;3.28;;;21.20;82.10;;;;;;5073487;28;20043;-71
2022/08/08 10:15:53;;;;;;;4.60;2.75;;;21.30;82.20;;;;;;5072979;28;20101;-71
2022/08/08 10:18:36;;;;;;;5.53;3.08;;;21.30;82.30;;;;;;5073086;28;20075;-71
2022/08/08 10:21:10;;;;;;;6.68;3.83;;;21.30;82.70;;;;;;5073173;28;20036;-71
2022/08/08 10:23:43;;;;;;;5.53;3.00;;;21.40;81.60;;;;;;5072958;28;20477;-71
2022/08/08 10:26:16;;;;;;;5.43;2.85;;;21.40;80.40;;;;;;5072955;28;20028;-71
2022/08/08 10:28:55;;;;;;;5.68;3.13;;;21.40;80.70;;;;;;5072951;28;20425;-71
2022/08/08 10:34:19;;;;;;;4.57;3.10;;;21.50;80.60;;;;;;5072814;28;20032;-71
2022/08/08 10:36:46;;;;;;;7.38;3.15;;;21.50;80.40;;;;;;5072596;28;20035;-71
2022/08/08 10:39:27;;;;;;;6.55;3.10;;;21.60;79.70;;;;;;5072466;28;20086;-71
2022/08/08 10:42:03;;;;;;;7.40;3.17;;;21.70;79.70;;;;;;5072360;28;20036;-71
2022/08/08 10:44:33;;;;;;;8.13;3.40;;;21.70;79.70;;;;;;5054698;28;20074;-71
2022/08/08 10:47:13;;;;;;;6.30;3.63;;;21.80;80.40;;;;;;5072557;28;20044;-71
2022/08/08 10:49:41;;;;;;;7.22;3.47;;;21.80;80.00;;;;;;5072459;28;20052;-71
2022/08/08 10:52:07;;;;;;;8.13;3.60;;;21.80;79.50;;;;;;5072327;28;20024;-71
2022/08/08 10:54:33;;;;;;;6.95;3.40;;;21.90;78.80;;;;;;5072552;28;20165;-71
2022/08/08 10:57:00;;;;;;;5.35;3.13;;;21.90;78.80;;;;;;5054407;28;20055;-71
2022/08/08 10:59:26;;;;;;;8.07;3.67;;;21.80;78.60;;;;;;5072115;28;20034;-71
2022/08/08 11:01:53;;;;;;;6.13;2.92;;;21.90;78.10;;;;;;5072347;28;20033;-71
2022/08/08 11:04:19;;;;;;;7.40;3.00;;;21.90;78.70;;;;;;5072212;28;20028;-71
2022/08/08 11:06:45;;;;;;;6.72;3.28;;;21.90;79.30;;;;;;5053986;28;20033;-71
2022/08/08 11:09:12;;;;;;;8.10;3.38;;;22.00;78.50;;;;;;5071779;28;20447;-71
2022/08/08 11:11:42;;;;;;;6.60;3.17;;;22.10;78.00;;;;;;5072293;28;20028;-71
2022/08/08 11:14:10;;;;;;;5.53;3.08;;;22.10;79.10;;;;;;5072038;28;20458;-71
2022/08/08 11:16:41;;;;;;;6.57;3.28;;;22.10;78.60;;;;;;5072061;28;20111;-71
2022/08/08 11:19:08;;;;;;;7.18;3.40;;;22.20;78.20;;;;;;5071714;28;20021;-71
2022/08/08 11:21:44;;;;;;;6.72;3.00;;;22.20;78.70;;;;;;5071715;28;20056;-71
2022/08/08 11:24:12;;;;;;;4.80;3.10;;;22.20;79.20;;;;;;5072047;28;20032;-71
2022/08/08 11:26:42;;;;;;;6.97;3.10;;;22.20;78.80;;;;;;5071755;28;20024;-71
2022/08/08 11:29:09;;;;;;;6.00;3.30;;;22.20;78.90;;;;;;5053781;28;20037;-71
2022/08/08 11:31:45;;;;;;;7.60;3.35;;;22.30;77.90;;;;;;5071643;28;20416;-71
2022/08/08 11:34:13;;;;;;;6.13;3.28;;;22.50;77.40;;;;;;5071690;28;20025;-71
2022/08/08 11:36:40;;;;;;;8.67;3.70;;;22.40;77.40;;;;;;5071528;28;20086;-71
2022/08/08 11:39:10;;;;;;;7.82;3.28;;;22.50;77.40;;;;;;5071205;28;20029;-71
2022/08/08 11:41:36;;;;;;;8.55;2.53;;;22.50;76.90;;;;;;5053470;28;20500;-71
2022/08/08 11:44:04;;;;;;;6.00;2.70;;;22.50;76.70;;;;;;5071441;28;20044;-71
2022/08/08 11:46:34;;;;;;;4.75;3.10;;;22.40;77.60;;;;;;5071203;28;20473;-71
2022/08/08 11:49:02;;;;;;;5.80;3.00;;;22.40;77.70;;;;;;5071201;28;20366;-71
2022/08/08 11:51:30;;;;;;;4.95;2.92;;;22.40;78.40;;;;;;5071227;28;20119;-71
2022/08/08 11:53:55;;;;;;;7.50;3.03;;;22.40;79.10;;;;;;5052876;28;20153;-71
2022/08/08 11:56:23;;;;;;;6.88;3.13;;;22.50;78.80;;;;;;5071288;28;20066;-71
2022/08/08 11:58:49;;;;;;;7.50;3.58;;;22.50;78.60;;;;;;5053055;28;20029;-70
2022/08/08 12:01:16;;;;;;;4.85;2.92;;;22.60;78.20;;;;;;5071498;28;20033;-71
2022/08/08 12:03:48;;;;;;;5.82;3.13;;;22.70;77.90;;;;;;5071145;28;20051;-71
2022/08/08 12:06:17;;;;;;;5.50;2.97;;;22.60;78.20;;;;;;5053146;28;20036;-71
2022/08/08 12:08:43;;;;;;;9.88;3.40;;;22.50;78.60;;;;;;5070774;28;20025;-71
2022/08/08 12:11:11;;;;;;;7.80;3.38;;;22.50;77.80;;;;;;5071045;28;20040;-71
2022/08/08 12:13:38;;;;;;;12.50;3.35;;;22.50;78.20;;;;;;5070950;28;20049;-71
2022/08/08 12:16:11;;;;;;;6.97;3.30;;;22.60;77.40;;;;;;5071042;28;20033;-72
2022/08/08 12:18:51;;;;;;;7.50;3.25;;;22.70;77.00;;;;;;5070828;28;20523;-71
2022/08/08 12:21:31;;;;;;;7.22;3.22;;;22.70;77.10;;;;;;5070874;28;20025;-71
2022/08/08 12:24:07;;;;;;;5.47;2.85;;;22.80;77.60;;;;;;5070855;28;20094;-71
2022/08/08 12:26:56;;;;;;;5.25;3.10;;;22.80;77.30;;;;;;5070922;28;20021;-71
2022/08/08 12:29:26;;;;;;;5.43;2.78;;;22.80;77.70;;;;;;5070566;28;20047;-71
2022/08/08 12:32:05;;;;;;;6.18;3.30;;;22.90;78.40;;;;;;5070854;28;20200;-71
2022/08/08 12:34:41;;;;;;;8.27;2.90;;;23.00;77.00;;;;;;5070696;28;20024;-71
2022/08/08 12:37:20;;;;;;;4.57;2.60;;;23.00;76.70;;;;;;5070694;28;20039;-71
2022/08/08 12:39:46;;;;;;;6.68;2.60;;;23.00;76.40;;;;;;5070942;28;20115;-71
2022/08/08 12:42:12;;;;;;;5.18;2.80;;;23.00;76.50;;;;;;5180669;22;20036;-66
2022/08/08 12:44:40;;;;;;;5.35;3.00;;;23.00;76.00;;;;;;5071068;28;20051;-66
2022/08/08 12:47:07;;;;;;;6.20;2.70;;;23.20;76.80;;;;;;5070902;28;20457;-67
2022/08/08 12:49:35;;;;;;;10.65;3.00;;;23.20;76.00;;;;;;5070612;28;20115;-67
2022/08/08 12:52:03;;;;;;;5.63;2.50;;;23.20;77.20;;;;;;5071105;28;20157;-65
2022/08/08 12:54:35;;;;;;;5.45;2.97;;;23.30;76.50;;;;;;5071015;28;20081;-66
2022/08/08 12:57:22;;;;;;;5.70;2.80;;;23.30;75.80;;;;;;5070733;28;20025;-66
2022/08/08 12:59:53;;;;;;;7.13;2.55;;;23.30;75.50;;;;;;5070641;28;20124;-66
2022/08/08 13:02:30;;;;;;;5.07;2.72;;;23.30;76.00;;;;;;5071037;28;20029;-66
2022/08/08 13:05:00;;;;;;;5.07;2.80;;;23.30;75.70;;;;;;5052861;28;20035;-66
2022/08/08 13:07:39;;;;;;;4.18;2.33;;;23.30;75.50;;;;;;5073774;28;20035;-66
2022/08/08 13:10:12;;;;;;;4.57;2.45;;;23.30;75.00;;;;;;5056454;28;20028;-66
2022/08/08 13:12:40;;;;;;;4.25;2.35;;;23.20;75.20;;;;;;5074596;28;20028;-66
2022/08/08 13:15:15;;;;;;;4.53;2.58;;;23.20;75.60;;;;;;5074584;28;20021;-66
2022/08/08 13:17:41;;;;;;;4.03;2.40;;;23.10;75.70;;;;;;5074357;28;20032;-66
2022/08/08 13:20:22;;;;;;;4.60;2.58;;;23.10;76.60;;;;;;5074221;28;20495;-66
2022/08/08 13:22:49;;;;;;;5.10;2.60;;;23.00;76.00;;;;;;5074436;28;20028;-66
2022/08/08 13:25:18;;;;;;;4.45;2.50;;;23.00;75.60;;;;;;5074743;28;20109;-65
2022/08/08 13:27:51;;;;;;;6.32;2.25;;;23.00;76.00;;;;;;5074106;28;20481;-66